Time;durP1;ratioP1;P1;durP2;ratioP2;P2;SDS_P1;SDS_P2;PMS_P1;PMS_P2;Temp;Humidity;BMP_temperature;BMP_pressure;BME280_temperature;BME280_humidity;BME280_pressure;Samples;Min_cycle;Max_cycle;Signal;HPM_P1;HPM_P2
2022/06/05 00:01:42;;;;;;;10.50;8.50;;;;;;;17.23;80.41;99499.69;5061803;28;20055;-57
2022/06/05 00:04:25;;;;;;;11.63;7.70;;;;;;;17.30;80.08;99489.38;5068014;28;20044;-59
2022/06/05 00:07:02;;;;;;;14.98;7.95;;;;;;;17.25;79.96;99502.94;5042481;28;20029;-55
2022/06/05 00:09:55;;;;;;;9.60;7.43;;;;;;;17.21;80.16;99512.69;5055089;28;20024;-56
2022/06/05 00:12:24;;;;;;;9.10;7.82;;;;;;;17.18;80.55;99515.97;5036685;28;20075;-55
2022/06/05 00:14:49;;;;;;;9.05;8.05;;;;;;;17.08;80.82;99521.44;5066208;28;20048;-55
2022/06/05 00:17:18;;;;;;;11.50;8.15;;;;;;;17.28;79.92;99515.91;5047832;28;20043;-55
2022/06/05 00:19:46;;;;;;;11.43;8.23;;;;;;;17.20;80.37;99511.09;5061133;28;20079;-55
2022/06/05 00:22:12;;;;;;;11.52;8.02;;;;;;;17.39;79.10;99503.09;5063789;28;20033;-55
2022/06/05 00:24:37;;;;;;;9.27;7.88;;;;;;;17.27;79.82;99505.34;5063167;28;20032;-56
2022/06/05 00:27:28;;;;;;;9.63;8.32;;;;;;;17.26;80.06;99504.53;5063545;28;20529;-55
2022/06/05 00:29:59;;;;;;;10.60;8.10;;;;;;;17.03;81.10;99509.53;5034811;28;20045;-56
2022/06/05 00:33:05;;;;;;;9.57;8.57;;;;;;;16.76;82.26;99496.34;5065423;28;20029;-55
2022/06/05 00:35:32;;;;;;;8.93;7.25;;;;;;;16.90;81.67;99485.78;5039798;28;20048;-56
2022/06/05 00:38:15;;;;;;;8.90;7.82;;;;;;;16.92;81.49;99478.16;5028255;28;20139;-57
2022/06/05 00:41:03;;;;;;;18.08;8.25;;;;;;;16.92;80.94;99480.88;5050725;28;20083;-56
2022/06/05 00:43:28;;;;;;;9.85;8.60;;;;;;;16.92;81.07;99480.06;5064195;28;20033;-56
2022/06/05 00:45:54;;;;;;;9.73;8.02;;;;;;;16.96;80.29;99476.53;5047799;28;20036;-55
2022/06/05 00:48:20;;;;;;;10.77;8.10;;;;;;;16.81;82.36;99472.00;5050957;28;20090;-56
2022/06/05 00:50:47;;;;;;;10.20;9.13;;;;;;;16.75;82.05;99478.50;5045942;28;20116;-56
2022/06/05 00:53:13;;;;;;;10.95;8.07;;;;;;;16.70;83.37;99477.69;5061128;28;20054;-55
2022/06/05 00:55:41;;;;;;;10.13;8.02;;;;;;;16.67;83.17;99470.13;5064921;28;20055;-55
2022/06/05 00:58:07;;;;;;;11.15;9.55;;;;;;;16.53;82.81;99467.22;5030984;28;20512;-56
2022/06/05 01:00:34;;;;;;;11.38;9.20;;;;;;;16.56;82.42;99464.75;5045347;28;20528;-56
2022/06/05 01:03:02;;;;;;;9.52;8.40;;;;;;;16.61;82.47;99455.81;5060674;28;20035;-55
2022/06/05 01:05:28;;;;;;;9.85;8.57;;;;;;;16.45;84.44;99457.78;5060220;28;20036;-55
2022/06/05 01:07:53;;;;;;;8.77;7.90;;;;;;;16.44;84.63;99466.16;5065222;28;20037;-56
2022/06/05 01:10:20;;;;;;;11.30;9.05;;;;;;;16.58;84.08;99459.09;5059123;28;20025;-56
2022/06/05 01:13:01;;;;;;;10.57;9.35;;;;;;;16.63;83.77;99445.53;5029576;28;20558;-56
2022/06/05 01:15:35;;;;;;;8.63;7.72;;;;;;;16.65;82.82;99429.00;5059428;28;20083;-56
2022/06/05 01:18:00;;;;;;;9.45;8.30;;;;;;;16.59;83.71;99420.09;5044064;28;20566;-56
2022/06/05 01:20:47;;;;;;;9.32;8.07;;;;;;;16.49;84.34;99415.53;5063701;28;20040;-56
2022/06/05 01:23:21;;;;;;;13.57;8.23;;;;;;;16.57;83.42;99416.88;5061325;28;20082;-56
2022/06/05 01:25:53;;;;;;;10.98;8.30;;;;;;;16.55;83.28;99411.75;5063997;28;20436;-56
2022/06/05 01:28:23;;;;;;;9.73;8.60;;;;;;;16.50;83.86;99406.38;5061744;28;20054;-56
2022/06/05 01:31:06;;;;;;;10.82;9.02;;;;;;;16.46;83.95;99409.88;5042774;28;20476;-55
2022/06/05 01:33:31;;;;;;;13.30;8.57;;;;;;;16.30;85.08;99417.22;5044479;28;20037;-57
2022/06/05 01:36:06;;;;;;;12.50;9.55;;;;;;;16.25;85.80;99401.03;5043285;28;20043;-56
2022/06/05 01:38:38;;;;;;;10.00;8.82;;;;;;;16.22;86.17;99390.75;5060246;28;20032;-55
2022/06/05 01:41:16;;;;;;;10.05;8.68;;;;;;;16.27;85.46;99374.53;5060733;28;20383;-56
2022/06/05 01:43:45;;;;;;;11.20;8.85;;;;;;;16.27;85.03;99374.53;5043420;28;20025;-57
2022/06/05 01:46:15;;;;;;;12.05;8.35;;;;;;;16.17;84.66;99381.59;5048939;28;20104;-56
2022/06/05 01:48:51;;;;;;;9.40;8.40;;;;;;;15.93;84.66;99364.38;5026833;28;20486;-56
2022/06/05 01:51:23;;;;;;;11.88;8.82;;;;;;;15.93;85.68;99350.84;5027543;28;20391;-55
2022/06/05 01:53:49;;;;;;;12.95;9.00;;;;;;;15.81;86.31;99344.94;5042126;28;20527;-56
2022/06/05 01:56:36;;;;;;;13.00;8.77;;;;;;;15.87;86.57;99328.41;5049521;28;20062;-56
2022/06/05 01:59:06;;;;;;;10.77;9.05;;;;;;;15.86;87.64;99326.00;5065594;28;20024;-55
2022/06/05 02:01:34;;;;;;;11.98;9.07;;;;;;;15.80;87.19;99318.97;5059267;28;20476;-56
2022/06/05 02:04:14;;;;;;;11.88;9.73;;;;;;;15.71;87.85;99307.94;5041124;28;20017;-56
2022/06/05 02:06:44;;;;;;;13.02;9.38;;;;;;;15.69;88.28;99292.00;5040443;28;20031;-56
2022/06/05 02:09:20;;;;;;;14.23;9.82;;;;;;;15.78;88.12;99286.84;5044894;28;20040;-55
2022/06/05 02:11:46;;;;;;;11.32;9.57;;;;;;;15.87;87.77;99278.97;5057285;28;20029;-56
2022/06/05 02:14:11;;;;;;;11.23;10.05;;;;;;;15.91;87.80;99280.03;5030417;28;20028;-56
2022/06/05 02:16:38;;;;;;;12.13;10.70;;;;;;;15.98;87.16;99269.75;5040937;28;20036;-56
2022/06/05 02:19:12;;;;;;;11.38;9.55;;;;;;;15.98;86.84;99258.94;5058175;28;20063;-56
2022/06/05 02:21:37;;;;;;;13.38;10.07;;;;;;;16.13;86.15;99256.16;5058490;28;20433;-56
2022/06/05 02:24:07;;;;;;;11.75;10.52;;;;;;;16.11;86.39;99244.78;5045359;28;20492;-56
2022/06/05 02:26:35;;;;;;;13.40;10.00;;;;;;;16.19;85.93;99227.19;5062889;28;20033;-56
2022/06/05 02:29:06;;;;;;;11.43;10.32;;;;;;;16.24;85.78;99218.22;5061166;28;20045;-56
2022/06/05 02:31:31;;;;;;;11.88;9.77;;;;;;;16.22;85.70;99204.19;5040684;28;20043;-56
2022/06/05 02:34:09;;;;;;;10.73;9.63;;;;;;;16.11;85.62;99193.44;5057793;28;20033;-56
2022/06/05 02:36:41;;;;;;;10.82;9.73;;;;;;;15.95;87.03;99197.31;5051108;28;20106;-56
2022/06/05 02:39:21;;;;;;;12.50;10.65;;;;;;;15.94;87.01;99182.19;5065087;28;20112;-56
2022/06/05 02:42:03;;;;;;;14.68;9.90;;;;;;;15.99;86.70;99179.44;5062821;28;20115;-56
2022/06/05 02:44:34;;;;;;;13.60;10.38;;;;;;;15.86;87.61;99174.66;5055522;28;20190;-55
2022/06/05 02:47:37;;;;;;;15.30;9.80;;;;;;;15.98;87.17;99163.53;5062338;28;20043;-56
2022/06/05 02:50:24;;;;;;;12.25;10.10;;;;;;;16.06;86.28;99165.63;5055373;28;20147;-55
2022/06/05 02:52:50;;;;;;;10.82;9.27;;;;;;;16.10;86.38;99169.38;5060736;28;20036;-55
2022/06/05 02:55:18;;;;;;;10.68;9.57;;;;;;;15.99;86.20;99170.53;5025106;28;20041;-56
2022/06/05 02:57:43;;;;;;;13.02;9.60;;;;;;;15.93;86.88;99167.84;5060102;28;20119;-56
2022/06/05 03:00:13;;;;;;;10.40;9.10;;;;;;;15.94;87.15;99176.78;5064003;28;20451;-56
2022/06/05 03:05:23;;;;;;;11.15;9.35;;;;;;;15.92;87.03;99152.72;5058891;28;20087;-55
2022/06/05 03:07:49;;;;;;;15.25;9.13;;;;;;;15.90;86.94;99162.19;5061887;28;20040;-55
2022/06/05 03:10:14;;;;;;;12.50;10.23;;;;;;;15.82;87.42;99158.19;5063591;28;20397;-56
2022/06/05 03:12:39;;;;;;;11.98;10.10;;;;;;;15.89;87.23;99163.28;5042853;28;20020;-56
2022/06/05 03:15:06;;;;;;;12.25;9.68;;;;;;;15.80;87.51;99156.84;5063125;28;20039;-56
2022/06/05 03:17:31;;;;;;;14.25;10.43;;;;;;;15.73;88.11;99174.19;5046097;28;20033;-55
2022/06/05 03:19:57;;;;;;;12.82;10.68;;;;;;;15.75;88.44;99171.22;5065525;28;20024;-56
2022/06/05 03:22:23;;;;;;;12.95;11.07;;;;;;;15.66;88.11;99175.53;5059920;28;20459;-56
2022/06/05 03:24:48;;;;;;;15.75;11.32;;;;;;;15.75;88.61;99182.03;5063979;28;20465;-56
2022/06/05 03:27:14;;;;;;;15.95;10.35;;;;;;;15.74;88.03;99181.19;5060383;28;20039;-56
2022/06/05 03:29:39;;;;;;;14.57;10.68;;;;;;;15.74;88.04;99183.88;5062902;28;20047;-56
2022/06/05 03:32:05;;;;;;;11.40;9.68;;;;;;;15.64;87.73;99183.09;5066157;28;20020;-56
2022/06/05 03:34:30;;;;;;;16.25;10.48;;;;;;;15.68;87.37;99189.59;5062317;28;20047;-56
2022/06/05 03:36:55;;;;;;;14.35;10.45;;;;;;;16.11;84.97;99198.84;5064437;28;20037;-57
2022/06/05 03:39:21;;;;;;;14.63;10.55;;;;;;;15.91;86.11;99215.16;5060219;28;20021;-56
2022/06/05 03:41:46;;;;;;;13.55;10.45;;;;;;;15.51;87.91;99219.63;5065026;28;21301;-56
2022/06/05 03:44:12;;;;;;;12.90;10.68;;;;;;;15.41;88.89;99211.56;5061183;28;20033;-56
2022/06/05 03:46:39;;;;;;;13.73;9.82;;;;;;;15.48;88.61;99212.88;5063266;28;20494;-55
2022/06/05 03:49:06;;;;;;;12.57;10.43;;;;;;;15.60;87.98;99215.28;5064325;28;20113;-55
2022/06/05 03:51:31;;;;;;;15.60;10.40;;;;;;;15.72;87.69;99221.22;5041007;28;20087;-56
2022/06/05 03:53:56;;;;;;;12.98;10.02;;;;;;;15.66;88.33;99218.75;5057615;28;20463;-56
2022/06/05 03:56:23;;;;;;;22.55;11.32;;;;;;;15.64;88.70;99229.84;5063563;28;20106;-55
2022/06/05 03:58:49;;;;;;;12.38;11.07;;;;;;;15.69;88.02;99243.34;5060598;28;20043;-55
2022/06/05 04:01:16;;;;;;;11.98;10.65;;;;;;;15.64;88.37;99254.16;5058375;28;21698;-56
2022/06/05 04:03:41;;;;;;;13.57;10.27;;;;;;;16.15;86.26;99264.00;5066411;28;20021;-56
2022/06/05 04:06:07;;;;;;;11.80;9.73;;;;;;;16.32;84.91;99253.59;5070033;28;20033;-56
2022/06/05 04:08:34;;;;;;;11.38;9.90;;;;;;;16.18;85.57;99264.22;5060771;28;20045;-54
2022/06/05 04:11:04;;;;;;;13.38;10.13;;;;;;;15.83;85.86;99272.50;5064677;28;20032;-56
2022/06/05 04:13:29;;;;;;;13.55;9.70;;;;;;;15.62;87.03;99277.13;5045885;28;20111;-56
2022/06/05 04:15:55;;;;;;;14.55;9.93;;;;;;;15.71;87.19;99292.53;5066466;28;20032;-55
2022/06/05 04:18:20;;;;;;;16.48;10.43;;;;;;;15.90;86.70;99286.50;5063967;28;20426;-55
2022/06/05 04:20:45;;;;;;;10.15;9.15;;;;;;;15.91;87.57;99294.34;5060237;28;20041;-55
2022/06/05 04:23:11;;;;;;;10.45;9.35;;;;;;;16.05;87.18;99296.47;5062608;28;20070;-55
2022/06/05 04:25:36;;;;;;;13.25;10.70;;;;;;;15.72;87.45;99304.13;5065641;28;20024;-56
2022/06/05 04:28:02;;;;;;;12.75;10.30;;;;;;;15.76;87.83;99297.13;5063813;28;20036;-54
2022/06/05 04:30:27;;;;;;;12.60;10.25;;;;;;;15.93;86.75;99294.91;5062369;28;20055;-56
2022/06/05 04:32:52;;;;;;;15.13;10.65;;;;;;;16.09;86.47;99292.94;5061599;28;20051;-54
2022/06/05 04:35:18;;;;;;;15.15;10.38;;;;;;;16.39;85.83;99296.56;5063503;28;20036;-56
2022/06/05 04:37:43;;;;;;;14.05;9.90;;;;;;;16.48;84.56;99303.03;5064986;28;20032;-56
2022/06/05 04:40:09;;;;;;;12.60;9.93;;;;;;;16.49;84.00;99295.72;5064753;28;20028;-55
2022/06/05 04:42:34;;;;;;;15.38;10.95;;;;;;;16.29;84.37;99302.03;5065105;28;20119;-55
2022/06/05 04:45:00;;;;;;;15.07;10.02;;;;;;;16.26;84.74;99294.50;5068745;28;20453;-56
2022/06/05 04:47:25;;;;;;;13.65;9.82;;;;;;;16.15;85.44;99302.66;5066579;28;20024;-56
2022/06/05 04:49:51;;;;;;;18.50;9.30;;;;;;;16.37;85.81;99310.41;5061057;28;20047;-55
2022/06/05 04:52:16;;;;;;;14.77;10.07;;;;;;;16.48;84.59;99305.72;5062714;28;20418;-56
2022/06/05 04:54:41;;;;;;;12.45;9.45;;;;;;;16.36;85.24;99307.97;5060464;28;20468;-56
2022/06/05 04:57:07;;;;;;;10.48;9.45;;;;;;;16.38;84.59;99300.38;5060211;28;20028;-55
2022/06/05 04:59:33;;;;;;;18.48;9.05;;;;;;;16.63;85.40;99302.13;5061797;28;20044;-56
2022/06/05 05:01:58;;;;;;;11.68;9.73;;;;;;;16.71;83.94;99303.44;5043460;28;20024;-56
2022/06/05 05:04:23;;;;;;;12.23;9.40;;;;;;;16.80;83.00;99296.38;5060768;28;20037;-55
2022/06/05 05:06:49;;;;;;;10.75;9.25;;;;;;;16.79;83.33;99290.13;5066768;28;20111;-55
2022/06/05 05:09:14;;;;;;;14.95;10.23;;;;;;;16.77;83.75;99286.03;5044957;28;20031;-56
2022/06/05 05:11:40;;;;;;;11.30;9.82;;;;;;;16.67;83.97;99286.94;5062966;28;20037;-56
2022/06/05 05:14:05;;;;;;;12.82;9.05;;;;;;;16.68;84.24;99279.63;5065323;28;20418;-55
2022/06/05 05:16:31;;;;;;;14.95;9.48;;;;;;;16.61;84.30;99278.03;5060826;28;20684;-56
2022/06/05 05:18:56;;;;;;;10.98;9.68;;;;;;;16.65;83.62;99270.19;5063377;28;20028;-56
2022/06/05 05:21:23;;;;;;;13.43;9.57;;;;;;;16.65;85.17;99272.06;5060485;28;20103;-55
2022/06/05 05:23:49;;;;;;;15.57;8.52;;;;;;;17.68;79.29;99262.75;5044847;28;20040;-55
2022/06/05 05:26:16;;;;;;;12.80;9.27;;;;;;;17.37;80.95;99266.88;5047266;28;20339;-56
2022/06/05 05:28:42;;;;;;;10.40;7.95;;;;;;;17.84;78.40;99258.00;5064225;28;20422;-56
2022/06/05 05:31:12;;;;;;;12.52;9.38;;;;;;;17.71;78.40;99249.75;5063381;28;20035;-55
2022/06/05 05:33:38;;;;;;;;;;;;;;;18.10;76.69;99246.84;5060295;28;20119;-56
2022/06/05 05:36:04;;;;;;;11.32;8.52;;;;;;;18.77;73.40;99243.19;5061887;28;20051;-55
2022/06/05 05:38:29;;;;;;;11.07;8.88;;;;;;;17.76;78.09;99234.22;5066456;28;20382;-56
2022/06/05 05:43:39;;;;;;;12.40;9.23;;;;;;;17.76;78.66;99236.13;5065645;28;20085;-55
2022/06/05 05:46:08;;;;;;;10.27;8.00;;;;;;;17.70;79.65;99227.25;5066218;28;20370;-56
2022/06/05 05:48:33;;;;;;;9.10;8.20;;;;;;;18.06;77.42;99224.91;5039470;28;20021;-56
2022/06/05 05:50:59;;;;;;;12.82;8.25;;;;;;;18.33;76.43;99210.69;5062428;28;20036;-56
2022/06/05 05:53:24;;;;;;;9.55;7.75;;;;;;;18.39;75.68;99213.34;5067214;28;20029;-56
2022/06/05 05:55:50;;;;;;;12.15;8.35;;;;;;;18.42;75.46;99210.84;5063987;28;20511;-55
2022/06/05 05:58:15;;;;;;;11.55;8.18;;;;;;;18.37;76.53;99212.81;5048761;28;20042;-56
2022/06/05 06:00:41;;;;;;;11.13;8.43;;;;;;;18.19;77.31;99198.16;5061783;28;20029;-58
2022/06/05 06:03:06;;;;;;;10.55;7.85;;;;;;;18.06;78.33;99191.56;5063293;28;20093;-56
2022/06/05 06:05:31;;;;;;;9.98;8.30;;;;;;;17.73;80.55;99183.31;5062410;28;20047;-56
2022/06/05 06:07:57;;;;;;;9.35;8.40;;;;;;;17.77;80.72;99170.78;5046515;28;20036;-56
2022/06/05 06:10:23;;;;;;;14.00;9.55;;;;;;;17.41;82.50;99173.91;5061529;28;20493;-56
2022/06/05 06:12:48;;;;;;;12.95;8.68;;;;;;;17.71;80.60;99165.72;5062834;28;20035;-55
2022/06/05 06:15:14;;;;;;;11.18;8.77;;;;;;;17.74;81.15;99160.50;5059393;28;20394;-54
2022/06/05 06:17:39;;;;;;;9.90;8.45;;;;;;;17.68;82.16;99161.69;5062724;28;20029;-55
2022/06/05 06:20:07;;;;;;;11.43;8.32;;;;;;;17.55;82.69;99149.66;5057745;28;20033;-54
2022/06/05 06:22:35;;;;;;;10.90;8.90;;;;;;;17.40;83.67;99147.94;5061829;28;20024;-55
2022/06/05 06:25:01;;;;;;;9.95;8.18;;;;;;;17.61;83.45;99139.56;5066272;28;20132;-55
2022/06/05 06:27:27;;;;;;;14.15;9.25;;;;;;;17.89;82.43;99138.63;5047589;28;20040;-56
2022/06/05 06:29:52;;;;;;;10.48;9.38;;;;;;;17.70;83.29;99132.38;5063353;28;20030;-54
2022/06/05 06:32:18;;;;;;;9.88;8.70;;;;;;;17.79;83.89;99114.34;5061345;28;20025;-55
2022/06/05 06:34:43;;;;;;;10.48;8.73;;;;;;;17.85;84.14;99107.81;5059409;28;20508;-54
2022/06/05 06:37:09;;;;;;;10.63;9.13;;;;;;;17.98;84.13;99103.53;5065656;28;20032;-54
2022/06/05 06:39:34;;;;;;;9.90;8.80;;;;;;;17.83;85.75;99107.28;5062349;28;20029;-55
2022/06/05 06:42:00;;;;;;;13.15;9.32;;;;;;;18.07;85.82;99107.22;5066133;28;20024;-55
2022/06/05 06:44:25;;;;;;;12.32;9.68;;;;;;;17.84;87.14;99100.75;5063062;28;20816;-55
2022/06/05 06:46:51;;;;;;;13.65;9.50;;;;;;;18.25;83.86;99097.44;5059271;28;20049;-57
2022/06/05 06:49:16;;;;;;;10.13;9.00;;;;;;;18.50;82.80;99108.97;5060637;28;20037;-56
2022/06/05 06:51:41;;;;;;;12.15;8.57;;;;;;;19.01;78.94;99112.69;5065467;28;20020;-57
2022/06/05 06:54:07;;;;;;;9.40;8.40;;;;;;;18.39;79.65;99118.38;5066078;28;20036;-55
2022/06/05 06:56:33;;;;;;;10.38;8.45;;;;;;;18.49;80.68;99104.63;5059996;28;20097;-55
2022/06/05 06:58:59;;;;;;;9.77;8.75;;;;;;;18.20;81.99;99113.00;5063064;28;20465;-55
2022/06/05 07:01:25;;;;;;;9.60;8.68;;;;;;;18.47;80.77;99106.81;5059860;28;20024;-56
2022/06/05 07:03:51;;;;;;;9.75;8.73;;;;;;;18.50;82.01;99108.97;5066332;28;20012;-56
2022/06/05 07:06:16;;;;;;;10.10;9.05;;;;;;;18.37;83.83;99126.00;5070202;28;20757;-56
2022/06/05 07:08:42;;;;;;;10.02;8.82;;;;;;;18.63;81.61;99126.38;5062827;28;20040;-56
2022/06/05 07:11:08;;;;;;;10.82;9.00;;;;;;;18.86;80.85;99138.22;5063977;28;20109;-55
2022/06/05 07:13:34;;;;;;;11.23;8.88;;;;;;;18.84;79.78;99137.72;5065337;28;20460;-55
2022/06/05 07:16:00;;;;;;;12.50;9.27;;;;;;;18.88;80.59;99123.25;5063598;28;20123;-56
2022/06/05 07:18:25;;;;;;;13.88;9.20;;;;;;;19.11;81.93;99124.16;5063126;28;20029;-57
2022/06/05 07:20:50;;;;;;;9.80;8.90;;;;;;;19.34;79.38;99124.25;5066472;28;20020;-56
2022/06/05 07:23:16;;;;;;;12.45;8.63;;;;;;;19.41;78.85;99121.94;5068533;28;20024;-57
2022/06/05 07:25:45;;;;;;;10.10;9.10;;;;;;;19.61;78.67;99135.09;5068500;28;20119;-57
2022/06/05 07:28:10;;;;;;;9.87;8.87;;;;;;;19.68;77.39;99139.38;5051477;28;20024;-55
2022/06/05 07:30:36;;;;;;;18.20;10.00;;;;;;;19.58;79.72;99140.34;5053071;28;20310;-55
2022/06/05 07:33:01;;;;;;;9.68;8.68;;;;;;;19.40;79.38;99142.88;5069933;28;20028;-56
2022/06/05 07:35:27;;;;;;;9.45;8.43;;;;;;;19.45;79.47;99141.19;5064766;28;20086;-55
2022/06/05 07:37:52;;;;;;;9.15;8.25;;;;;;;19.18;80.43;99154.44;5069432;28;20029;-55
2022/06/05 07:40:18;;;;;;;12.82;9.20;;;;;;;18.75;82.06;99153.88;5050849;28;20036;-55
2022/06/05 07:42:43;;;;;;;9.95;8.68;;;;;;;18.55;82.00;99157.72;5070465;28;20127;-57
2022/06/05 07:45:11;;;;;;;11.38;9.70;;;;;;;17.93;85.07;99154.34;5069418;28;20029;-54
2022/06/05 07:47:36;;;;;;;12.77;9.38;;;;;;;18.01;84.83;99156.38;5032744;28;20038;-56
2022/06/05 07:50:03;;;;;;;12.15;9.30;;;;;;;17.99;83.97;99150.44;5069826;28;20028;-55
2022/06/05 07:55:12;;;;;;;12.68;9.30;;;;;;;18.42;83.05;99151.16;5065610;28;20035;-54
2022/06/05 07:57:38;;;;;;;11.20;10.10;;;;;;;18.19;83.29;99147.44;5070528;28;20040;-53
2022/06/05 08:00:05;;;;;;;11.73;9.60;;;;;;;18.20;84.14;99142.84;5068244;28;20028;-55
2022/06/05 08:02:31;;;;;;;11.00;9.90;;;;;;;18.31;83.00;99144.28;5064771;28;20031;-55
2022/06/05 08:04:56;;;;;;;11.57;9.75;;;;;;;18.19;84.13;99152.06;5067103;28;20028;-55
2022/06/05 08:07:26;;;;;;;11.93;10.50;;;;;;;17.95;84.37;99152.16;5068503;28;20041;-56
2022/06/05 08:09:54;;;;;;;13.75;11.13;;;;;;;17.50;86.85;99144.31;5046373;28;20033;-54
2022/06/05 08:12:20;;;;;;;13.88;11.10;;;;;;;17.92;86.22;99141.88;5069402;28;20387;-55
2022/06/05 08:14:48;;;;;;;12.43;11.10;;;;;;;18.14;84.70;99160.28;5067542;28;20448;-54
2022/06/05 08:17:16;;;;;;;13.63;10.75;;;;;;;17.78;86.47;99158.03;5065711;28;20016;-54
2022/06/05 08:19:42;;;;;;;15.38;11.32;;;;;;;17.80;88.36;99159.38;5062253;28;20123;-54
2022/06/05 08:22:08;;;;;;;13.00;11.30;;;;;;;17.70;90.76;99162.19;5048639;28;20144;-54
2022/06/05 08:24:34;;;;;;;13.95;11.27;;;;;;;17.63;90.07;99172.59;5050631;28;20043;-54
2022/06/05 08:26:59;;;;;;;13.60;11.88;;;;;;;17.78;90.91;99163.47;5068357;28;20062;-54
2022/06/05 08:29:25;;;;;;;14.57;12.23;;;;;;;17.87;91.97;99162.53;5063621;28;20021;-53
2022/06/05 08:31:51;;;;;;;13.18;11.13;;;;;;;17.94;89.65;99164.06;5065368;28;20085;-54
2022/06/05 08:34:16;;;;;;;14.20;12.70;;;;;;;17.70;90.62;99159.50;5065094;28;20112;-54
2022/06/05 08:36:42;;;;;;;17.25;13.82;;;;;;;17.76;90.46;99166.44;5059968;28;20032;-53
2022/06/05 08:42:16;;;;;;;14.43;12.93;;;;;;;17.70;91.03;99167.63;5034590;28;20035;-54
2022/06/05 08:44:52;;;;;;;14.90;13.32;;;;;;;17.79;90.95;99165.84;5028088;28;20029;-54
2022/06/05 08:47:33;;;;;;;14.80;13.20;;;;;;;17.64;93.31;99168.78;5062966;28;20044;-51
2022/06/05 08:50:03;;;;;;;17.15;14.02;;;;;;;17.39;97.18;99167.97;5038099;28;20054;-55
2022/06/05 08:52:50;;;;;;;16.02;14.02;;;;;;;17.40;97.59;99158.78;5061462;28;20396;-53
2022/06/05 08:55:32;;;;;;;17.45;14.93;;;;;;;17.42;98.93;99166.59;5047473;28;20188;-54
2022/06/05 08:58:04;;;;;;;15.18;13.68;;;;;;;17.52;98.34;99168.38;5045311;28;20467;-55
2022/06/05 09:00:36;;;;;;;16.60;14.68;;;;;;;17.39;99.42;99162.56;5050111;28;20041;-54
2022/06/05 09:03:24;;;;;;;16.35;14.63;;;;;;;17.45;100.00;99166.84;5063217;28;20019;-54
2022/06/05 09:05:54;;;;;;;17.33;15.40;;;;;;;17.55;100.00;99181.38;5063071;28;20101;-54
2022/06/05 09:08:21;;;;;;;17.60;14.73;;;;;;;17.39;100.00;99173.41;5064692;28;20040;-54
2022/06/05 09:10:49;;;;;;;17.55;15.68;;;;;;;17.53;100.00;99176.22;5045373;28;20049;-54
2022/06/05 09:13:43;;;;;;;19.23;17.27;;;;;;;17.52;100.00;99171.09;5042971;28;20364;-55
2022/06/05 09:16:14;;;;;;;20.52;18.38;;;;;;;17.52;100.00;99171.88;5057220;28;20047;-54
2022/06/05 09:18:44;;;;;;;21.27;18.83;;;;;;;17.39;100.00;99172.59;5046097;28;20034;-55
2022/06/05 09:21:22;;;;;;;20.40;17.02;;;;;;;17.72;100.00;99168.13;5049020;28;20161;-55
2022/06/05 09:23:55;;;;;;;18.80;16.67;;;;;;;18.14;100.00;99165.69;5067000;28;20040;-54
2022/06/05 09:26:58;;;;;;;19.65;16.38;;;;;;;18.45;98.01;99166.03;5029503;28;20056;-55
2022/06/05 09:29:54;;;;;;;20.08;15.82;;;;;;;18.46;96.94;99159.50;5065630;28;20431;-54
2022/06/05 09:32:45;;;;;;;19.33;16.33;;;;;;;18.32;96.90;99156.72;5066636;28;20029;-55
2022/06/05 09:35:27;;;;;;;18.15;16.35;;;;;;;17.79;100.00;99149.59;5041641;28;20372;-55
2022/06/05 09:38:00;;;;;;;17.50;15.43;;;;;;;17.92;98.78;99141.88;5065661;28;20496;-54
2022/06/05 09:40:33;;;;;;;21.38;15.18;;;;;;;17.93;99.92;99129.94;5050892;28;20029;-55
2022/06/05 09:43:15;;;;;;;17.13;15.15;;;;;;;18.38;96.95;99138.47;5068897;28;20032;-55
2022/06/05 09:45:53;;;;;;;21.38;13.25;;;;;;;18.51;93.89;99133.06;5040295;28;20498;-55
2022/06/05 09:48:27;;;;;;;15.95;14.25;;;;;;;18.79;93.81;99126.94;5045102;28;20383;-55
2022/06/05 09:50:52;;;;;;;15.63;13.90;;;;;;;18.63;97.33;99123.69;5062926;28;20025;-54
2022/06/05 09:53:29;;;;;;;15.00;13.40;;;;;;;18.79;96.15;99121.50;5060435;28;20112;-53
2022/06/05 09:56:04;;;;;;;14.20;12.73;;;;;;;19.13;94.73;99121.97;5017385;28;20099;-56
2022/06/05 09:58:45;;;;;;;12.52;11.23;;;;;;;19.20;93.70;99115.34;5063708;28;20039;-55
2022/06/05 10:01:31;;;;;;;13.95;11.45;;;;;;;19.78;87.36;99109.25;5049364;28;20149;-55
2022/06/05 10:03:57;;;;;;;13.00;11.68;;;;;;;20.16;86.98;99103.47;5062642;28;20573;-54
2022/06/05 10:06:29;;;;;;;14.32;12.82;;;;;;;19.64;93.61;99105.72;5051384;28;20474;-55
2022/06/05 10:09:04;;;;;;;16.73;11.80;;;;;;;19.57;90.57;99104.22;5027297;28;20568;-55
2022/06/05 10:11:54;;;;;;;13.57;11.55;;;;;;;19.73;89.81;99099.28;5058956;28;20255;-55
2022/06/05 10:14:30;;;;;;;;;;;;;;;19.79;89.66;99089.06;5045319;28;20090;-55
2022/06/05 10:17:30;;;;;;;13.35;11.95;;;;;;;19.39;93.58;99088.81;5059236;28;19982;-55
2022/06/05 10:20:34;;;;;;;16.10;14.40;;;;;;;18.77;95.00;99091.13;5053405;28;20367;-56
2022/06/05 10:23:08;;;;;;;17.85;15.90;;;;;;;18.80;97.68;99093.28;5048464;28;20037;-55
2022/06/05 10:25:40;;;;;;;21.17;16.05;;;;;;;18.73;95.75;99091.72;5046507;28;20052;-55
2022/06/05 10:28:17;;;;;;;19.77;17.50;;;;;;;18.61;96.43;99077.81;5068275;28;20020;-55
2022/06/05 10:31:05;;;;;;;20.30;18.10;;;;;;;18.48;99.36;99068.56;5064678;28;20035;-55
2022/06/05 10:33:39;;;;;;;21.20;19.13;;;;;;;18.33;100.00;99066.09;5043994;28;20053;-54
2022/06/05 10:36:34;;;;;;;22.38;20.02;;;;;;;18.07;100.00;99080.09;5063215;28;20147;-54
2022/06/05 10:39:21;;;;;;;28.08;21.25;;;;;;;18.08;100.00;99070.06;5064634;28;20035;-53
2022/06/05 10:42:06;;;;;;;24.75;19.27;;;;;;;17.84;100.00;99072.84;5061101;28;20487;-52
2022/06/05 10:44:53;;;;;;;27.02;20.80;;;;;;;17.46;100.00;99079.03;5034771;28;20036;-54
2022/06/05 10:47:19;;;;;;;24.27;21.00;;;;;;;17.34;100.00;99081.34;5062094;28;20557;-54
2022/06/05 10:50:02;;;;;;;25.63;22.88;;;;;;;17.31;100.00;99076.53;5064395;28;20029;-55
2022/06/05 10:53:19;;;;;;;26.23;23.13;;;;;;;17.49;100.00;99063.28;5032199;28;20036;-54
2022/06/05 10:55:56;;;;;;;27.05;22.75;;;;;;;17.89;100.00;99056.50;5022198;28;20025;-54
2022/06/05 10:58:31;;;;;;;26.20;21.80;;;;;;;18.16;100.00;99055.00;5024049;28;20116;-55
2022/06/05 11:01:12;;;;;;;23.83;21.05;;;;;;;17.99;100.00;99050.13;5015933;28;20075;-55
2022/06/05 11:04:09;;;;;;;24.08;21.48;;;;;;;18.51;100.00;99050.88;5066381;28;20029;-55
2022/06/05 11:07:04;;;;;;;27.75;24.02;;;;;;;18.84;99.32;99039.97;5034261;28;20047;-55
2022/06/05 11:09:51;;;;;;;26.65;22.08;;;;;;;19.27;97.21;99037.75;5012336;28;20044;-55
2022/06/05 11:15:39;;;;;;;21.95;18.42;;;;;;;19.19;96.18;99043.88;5045546;28;20044;-57
2022/06/05 11:18:38;;;;;;;18.00;16.10;;;;;;;18.79;97.49;99040.06;5044809;28;20406;-54
2022/06/05 11:21:04;;;;;;;17.90;16.20;;;;;;;18.47;97.38;99039.00;5033458;28;20048;-58
2022/06/05 11:23:40;;;;;;;19.98;17.20;;;;;;;18.43;100.00;99038.00;5048135;28;20059;-55
2022/06/05 11:26:23;;;;;;;16.95;15.27;;;;;;;18.16;99.91;99028.69;5045607;28;20029;-56
2022/06/05 11:29:01;;;;;;;18.23;16.35;;;;;;;18.01;100.00;99032.44;5026933;28;20025;-55
2022/06/05 11:32:01;;;;;;;18.55;16.65;;;;;;;18.39;100.00;99020.69;5047560;28;20036;-55
2022/06/05 11:34:45;;;;;;;19.77;17.67;;;;;;;18.23;100.00;99020.16;5046605;28;20051;-56
2022/06/05 11:37:30;;;;;;;19.05;17.05;;;;;;;18.70;98.91;99010.88;5045648;28;20037;-55
2022/06/05 11:40:20;;;;;;;18.30;16.40;;;;;;;18.39;98.07;98993.56;5046983;28;20033;-55
2022/06/05 11:43:29;;;;;;;16.92;15.20;;;;;;;18.87;97.83;99002.19;5031482;28;20091;-56
2022/06/05 11:46:10;;;;;;;18.33;15.47;;;;;;;18.66;100.00;98996.28;5032895;28;20029;-57
2022/06/05 11:48:56;;;;;;;17.48;15.68;;;;;;;18.60;100.00;98994.81;5046272;28;20075;-56
2022/06/05 11:51:30;;;;;;;15.80;14.20;;;;;;;18.50;99.20;98992.28;5028462;28;20021;-54
2022/06/05 11:54:02;;;;;;;16.52;13.55;;;;;;;18.62;96.97;98992.59;5044831;28;20400;-55
2022/06/05 11:56:44;;;;;;;17.02;13.93;;;;;;;18.55;97.78;98992.19;5042057;28;20464;-55